Fecha, hora, temperatura, viento dirección y velocidad, humedad y presión.

  • 19-03-2019 23:00:00 | 9.10°C | Nordeste |6.00 km/h | 88.00% | 1022.80 hPa
  • 19-03-2019 22:00:00 | 9.60°C | Este |4.00 km/h | 81.00% | 1022.30 hPa
  • 19-03-2019 21:00:00 | 9.80°C | Nordeste |8.00 km/h | 81.00% | 1021.80 hPa
  • 19-03-2019 20:00:00 | 9.50°C | Este |4.00 km/h | 89.00% | 1021.30 hPa
  • 19-03-2019 19:00:00 | 10.00°C | Noroeste |5.00 km/h | 90.00% | 1021.10 hPa
  • 19-03-2019 18:00:00 | 10.20°C | Norte |3.00 km/h | 90.00% | 1020.50 hPa
  • 19-03-2019 17:00:00 | 10.70°C | Nordeste |6.00 km/h | 84.00% | 1020.30 hPa
  • 19-03-2019 16:00:00 | 11.20°C | Nordeste |10.00 km/h | 84.00% | 1020.40 hPa
  • 19-03-2019 15:00:00 | 11.40°C | Nordeste |13.00 km/h | 79.00% | 1020.20 hPa
  • 19-03-2019 14:00:00 | 11.80°C | Nordeste |13.00 km/h | 79.00% | 1020.10 hPa
  • 19-03-2019 13:00:00 | 11.50°C | Nordeste |9.00 km/h | 84.00% | 1020.30 hPa
  • 19-03-2019 12:00:00 | 11.10°C | Nordeste |11.00 km/h | 89.00% | 1020.10 hPa
  • 19-03-2019 11:00:00 | 11.20°C | Nordeste |9.00 km/h | 88.00% | 1019.90 hPa
  • 19-03-2019 10:00:00 | 10.10°C | Nordeste |10.00 km/h | 94.00% | 1019.40 hPa
  • 19-03-2019 09:00:00 | 9.60°C | Nordeste |12.00 km/h | 95.00% | 1019.00 hPa
  • 19-03-2019 08:00:00 | 9.20°C | Noroeste |12.00 km/h | 96.00% | 1018.30 hPa
  • 19-03-2019 07:00:00 | 9.50°C | Noroeste |15.00 km/h | 94.00% | 1017.90 hPa
  • 19-03-2019 06:00:00 | 8.90°C | Norte |11.00 km/h | 96.00% | 1017.90 hPa
  • 19-03-2019 05:00:00 | 9.40°C | Noroeste |12.00 km/h | 95.00% | 1017.70 hPa
  • 19-03-2019 04:00:00 | 8.90°C | Noroeste |13.00 km/h | 94.00% | 1018.10 hPa
  • 19-03-2019 03:00:00 | 8.90°C | Noroeste |13.00 km/h | 95.00% | 1018.50 hPa
  • 19-03-2019 02:00:00 | 9.00°C | Noroeste |16.00 km/h | 89.00% | 1019.00 hPa
  • 19-03-2019 01:00:00 | 9.20°C | Noroeste |13.00 km/h | 92.00% | 1018.90 hPa
  • 19-03-2019 00:00:00 | 9.80°C | Noroeste |14.00 km/h | 85.00% | 1019.30 hPa
    • diseño web asturias Información sobre el estado de las mareas, altura de la marejada, temperatura del agua y otros datos de Gijón en Asturias.

      Surf Gijón